createdAt,value
2018-09-20T00:01:05.897Z,19.50
2018-09-20T00:03:34.879Z,19.50
2018-09-20T00:06:05.458Z,19.40
2018-09-20T00:08:34.456Z,19.40
2018-09-20T00:11:03.370Z,19.40
2018-09-20T00:13:34.269Z,19.30
2018-09-20T00:16:03.470Z,19.30
2018-09-20T00:18:32.908Z,19.30
2018-09-20T00:21:02.108Z,19.30
2018-09-20T00:23:31.737Z,19.20
2018-09-20T00:26:00.749Z,19.30
2018-09-20T00:28:29.960Z,19.20
2018-09-20T00:30:59.320Z,19.20
2018-09-20T00:33:28.589Z,19.10
2018-09-20T00:35:57.789Z,19.10
2018-09-20T00:38:26.733Z,19.20
2018-09-20T00:40:55.918Z,19.10
2018-09-20T00:43:24.902Z,19.10
2018-09-20T00:45:54.100Z,19.00
2018-09-20T00:48:23.342Z,19.00
2018-09-20T00:50:52.289Z,19.00
2018-09-20T00:53:21.792Z,19.00
2018-09-20T00:55:50.935Z,18.90
2018-09-20T00:58:20.096Z,18.90
2018-09-20T01:00:49.085Z,18.90
2018-09-20T01:03:18.284Z,18.80
2018-09-20T01:05:47.432Z,18.80
2018-09-20T01:08:16.372Z,18.90
2018-09-20T01:10:45.993Z,18.80
2018-09-20T01:13:14.977Z,18.80
2018-09-20T01:15:44.560Z,18.80
2018-09-20T01:18:14.246Z,18.80
2018-09-20T01:20:43.815Z,18.80
2018-09-20T01:23:13.040Z,18.70
2018-09-20T01:25:42.233Z,18.70
2018-09-20T01:28:11.452Z,18.70
2018-09-20T01:30:40.384Z,18.70
2018-09-20T01:33:09.574Z,18.70
2018-09-20T01:35:38.596Z,18.70
2018-09-20T01:38:07.599Z,18.70
2018-09-20T01:40:36.540Z,18.70
2018-09-20T01:43:05.754Z,18.70
2018-09-20T01:45:35.015Z,18.70
2018-09-20T01:48:04.294Z,18.70
2018-09-20T01:50:34.577Z,18.60
2018-09-20T01:53:03.836Z,18.60
2018-09-20T01:55:33.063Z,18.60
2018-09-20T01:58:02.265Z,18.60
2018-09-20T02:00:31.448Z,18.60
2018-09-20T02:03:00.917Z,18.60
2018-09-20T02:05:30.092Z,18.50
2018-09-20T02:07:59.016Z,18.60
2018-09-20T02:10:27.974Z,18.50
2018-09-20T02:12:56.892Z,18.50
2018-09-20T02:15:26.075Z,18.40
2018-09-20T02:17:55.602Z,18.40
2018-09-20T02:20:24.718Z,18.50
2018-09-20T02:22:53.962Z,18.40
2018-09-20T02:25:23.677Z,18.30
2018-09-20T02:27:52.856Z,18.30
2018-09-20T02:30:22.097Z,18.30
2018-09-20T02:32:51.294Z,18.30
2018-09-20T02:35:20.474Z,18.30
2018-09-20T02:37:49.698Z,18.30
2018-09-20T02:40:18.958Z,18.20
2018-09-20T02:42:48.188Z,18.20
2018-09-20T02:45:17.893Z,18.20
2018-09-20T02:47:47.072Z,18.20
2018-09-20T02:50:17.025Z,18.20
2018-09-20T02:52:45.977Z,18.20
2018-09-20T02:55:15.214Z,18.20
2018-09-20T02:57:44.761Z,18.20
2018-09-20T03:00:14.026Z,18.10
2018-09-20T03:02:43.041Z,18.20
2018-09-20T03:05:12.271Z,18.10
2018-09-20T03:07:41.452Z,18.10
2018-09-20T03:10:10.707Z,18.10
2018-09-20T03:12:39.883Z,18.10
2018-09-20T03:15:09.317Z,18.10
2018-09-20T03:17:38.523Z,18.10
2018-09-20T03:20:07.875Z,18.10
2018-09-20T03:22:37.081Z,18.10
2018-09-20T03:25:06.281Z,18.00
2018-09-20T03:27:35.495Z,18.00
2018-09-20T03:30:04.557Z,18.00
2018-09-20T03:32:34.103Z,17.90
2018-09-20T03:35:03.338Z,17.80
2018-09-20T03:37:32.533Z,17.80
2018-09-20T03:40:01.822Z,17.80
2018-09-20T03:42:30.793Z,17.80
2018-09-20T03:45:00.048Z,17.70
2018-09-20T03:47:29.242Z,17.70
2018-09-20T03:49:58.384Z,17.70
2018-09-20T03:52:27.605Z,17.60
2018-09-20T03:54:56.845Z,17.60
2018-09-20T03:57:25.854Z,17.60
2018-09-20T03:59:54.993Z,17.60
2018-09-20T04:02:24.052Z,17.60
2018-09-20T04:04:53.459Z,17.60
2018-09-20T04:07:22.436Z,17.60
2018-09-20T04:09:51.770Z,17.50
2018-09-20T04:12:20.643Z,17.60
2018-09-20T04:14:49.831Z,17.50
2018-09-20T04:17:19.007Z,17.50
2018-09-20T04:19:48.187Z,17.50
2018-09-20T04:22:17.450Z,17.50
2018-09-20T04:24:46.425Z,17.60
2018-09-20T04:27:15.397Z,17.50
2018-09-20T04:29:44.352Z,17.50
2018-09-20T04:32:13.579Z,17.50
2018-09-20T04:34:42.536Z,17.50
2018-09-20T04:37:11.781Z,17.40
2018-09-20T04:39:40.768Z,17.50
2018-09-20T04:42:10.506Z,17.40
2018-09-20T04:44:39.661Z,17.40
2018-09-20T04:47:08.758Z,17.40
2018-09-20T04:49:38.027Z,17.40
2018-09-20T04:52:07.433Z,17.40
2018-09-20T04:54:36.382Z,17.40
2018-09-20T04:57:06.910Z,17.40
2018-09-20T04:59:38.156Z,17.40
2018-09-20T05:02:07.728Z,17.40
2018-09-20T05:04:37.233Z,17.40
2018-09-20T05:07:07.763Z,17.50
2018-09-20T05:09:36.984Z,17.50
2018-09-20T05:12:05.928Z,17.50
2018-09-20T05:14:35.081Z,17.50
2018-09-20T05:17:04.120Z,17.50
2018-09-20T05:19:34.292Z,17.60
2018-09-20T05:22:03.566Z,17.60
2018-09-20T05:24:32.570Z,17.70
2018-09-20T05:27:02.737Z,17.60
2018-09-20T05:29:31.925Z,17.60
2018-09-20T05:32:00.896Z,17.70
2018-09-20T05:34:31.351Z,17.70
2018-09-20T05:37:00.600Z,17.80
2018-09-20T05:39:30.197Z,17.80
2018-09-20T05:41:59.196Z,18.00
2018-09-20T05:44:28.432Z,18.00
2018-09-20T05:46:57.718Z,18.10
2018-09-20T05:49:27.522Z,18.20
2018-09-20T05:51:57.358Z,18.30
2018-09-20T05:54:26.845Z,18.40
2018-09-20T05:56:56.016Z,18.60
2018-09-20T05:59:25.310Z,18.60
2018-09-20T06:01:54.340Z,18.70
2018-09-20T06:04:23.532Z,18.70
2018-09-20T06:06:52.548Z,18.80
2018-09-20T06:09:21.739Z,18.90
2018-09-20T06:11:54.789Z,19.00
2018-09-20T06:14:23.745Z,19.20
2018-09-20T06:16:53.027Z,19.30
2018-09-20T06:19:23.197Z,19.40
2018-09-20T06:21:52.459Z,19.50
2018-09-20T06:24:21.621Z,19.60
2018-09-20T06:26:50.924Z,19.80
2018-09-20T06:29:19.942Z,20.00
2018-09-20T06:31:49.265Z,20.00
2018-09-20T06:34:18.514Z,20.20
2018-09-20T06:36:47.765Z,20.30
2018-09-20T06:39:16.741Z,20.50
2018-09-20T06:41:45.693Z,20.60
2018-09-20T06:44:14.919Z,20.70
2018-09-20T06:46:44.240Z,20.80
2018-09-20T06:49:13.477Z,20.90
2018-09-20T06:51:43.107Z,20.90
2018-09-20T06:54:12.407Z,21.10
2018-09-20T06:56:41.775Z,21.10
2018-09-20T06:59:11.194Z,21.10
2018-09-20T07:01:40.583Z,21.30
2018-09-20T07:04:12.585Z,21.20
2018-09-20T07:06:41.759Z,21.10
2018-09-20T07:09:40.483Z,21.20
2018-09-20T07:12:09.650Z,21.30
2018-09-20T07:14:38.839Z,21.30
2018-09-20T07:17:09.148Z,21.30
2018-09-20T07:19:38.561Z,21.30
2018-09-20T07:22:07.739Z,21.30
2018-09-20T07:24:36.925Z,21.40
2018-09-20T07:27:06.149Z,21.50
2018-09-20T07:29:35.823Z,21.50
2018-09-20T07:32:05.153Z,21.60
2018-09-20T07:34:34.751Z,21.70
2018-09-20T07:37:03.763Z,21.80
2018-09-20T07:39:33.022Z,21.90
2018-09-20T07:42:03.374Z,21.90
2018-09-20T07:44:33.138Z,21.90
2018-09-20T07:47:02.126Z,22.00
2018-09-20T07:49:31.120Z,22.00
2018-09-20T07:52:01.071Z,22.00
2018-09-20T07:54:30.272Z,22.10
2018-09-20T07:56:59.685Z,22.10
2018-09-20T07:59:28.663Z,22.20
2018-09-20T08:01:57.883Z,22.20
2018-09-20T08:04:26.844Z,22.30
2018-09-20T08:06:56.028Z,22.30
2018-09-20T08:09:25.029Z,22.40
2018-09-20T08:11:54.240Z,22.40
2018-09-20T08:14:24.301Z,22.50
2018-09-20T08:16:53.292Z,22.60
2018-09-20T08:19:22.585Z,22.60
2018-09-20T08:21:52.632Z,22.70
2018-09-20T08:24:21.894Z,22.80
2018-09-20T08:26:51.034Z,23.00
2018-09-20T08:29:20.303Z,23.10
2018-09-20T08:31:49.489Z,23.30
2018-09-20T08:34:18.478Z,23.40
2018-09-20T08:36:47.473Z,23.50
2018-09-20T08:39:16.484Z,23.50
2018-09-20T08:41:45.684Z,23.50
2018-09-20T08:44:15.088Z,23.50
2018-09-20T08:46:44.384Z,23.60
2018-09-20T08:49:13.597Z,23.70
2018-09-20T08:51:42.814Z,23.80
2018-09-20T08:54:12.084Z,23.90
2018-09-20T08:56:41.127Z,24.10
2018-09-20T08:59:10.398Z,24.20
2018-09-20T09:01:41.170Z,24.20
2018-09-20T09:04:10.412Z,24.30
2018-09-20T09:06:40.231Z,24.40
2018-09-20T09:09:10.385Z,24.50
2018-09-20T09:11:40.022Z,24.60
2018-09-20T09:14:09.676Z,24.60
2018-09-20T09:16:38.816Z,24.70
2018-09-20T09:19:08.170Z,24.70
2018-09-20T09:21:37.218Z,24.80
2018-09-20T09:24:06.465Z,24.80
2018-09-20T09:26:35.651Z,24.80
2018-09-20T09:29:04.810Z,24.90
2018-09-20T09:31:34.091Z,24.90
2018-09-20T09:34:03.913Z,25.00
2018-09-20T09:36:32.895Z,25.00
2018-09-20T09:39:02.203Z,25.00
2018-09-20T09:41:31.168Z,25.00
2018-09-20T09:44:00.323Z,24.90
2018-09-20T09:46:29.412Z,25.00
2018-09-20T09:48:58.793Z,24.80
2018-09-20T09:51:27.992Z,24.80
2018-09-20T09:53:57.168Z,24.80
2018-09-20T09:56:26.702Z,24.70
2018-09-20T09:58:56.006Z,24.80
2018-09-20T10:01:25.203Z,24.80
2018-09-20T10:03:54.196Z,25.00
2018-09-20T10:06:23.152Z,25.00
2018-09-20T10:08:52.265Z,25.10
2018-09-20T10:11:22.800Z,25.20
2018-09-20T10:13:51.914Z,25.20
2018-09-20T10:16:20.908Z,25.30
2018-09-20T10:18:49.908Z,25.30
2018-09-20T10:21:19.457Z,25.20
2018-09-20T10:23:49.010Z,25.20
2018-09-20T10:26:18.463Z,25.20
2018-09-20T10:28:47.807Z,25.30
2018-09-20T10:31:17.079Z,25.30
2018-09-20T10:33:46.683Z,25.30
2018-09-20T10:36:16.045Z,25.30
2018-09-20T10:38:45.685Z,25.40
2018-09-20T10:41:15.008Z,25.40
2018-09-20T10:43:43.955Z,25.50
2018-09-20T10:46:13.236Z,25.50
2018-09-20T10:48:43.696Z,25.60
2018-09-20T10:51:12.824Z,25.60
2018-09-20T10:53:41.801Z,25.70
2018-09-20T10:56:10.887Z,25.70
2018-09-20T10:58:40.088Z,25.70
2018-09-20T11:01:09.300Z,25.80
2018-09-20T11:03:38.511Z,25.80
2018-09-20T11:06:07.666Z,26.00
2018-09-20T11:08:36.853Z,26.00
2018-09-20T11:11:06.094Z,26.10
2018-09-20T11:13:35.455Z,26.10
2018-09-20T11:16:04.837Z,26.30
2018-09-20T11:18:34.037Z,26.30
2018-09-20T11:21:03.436Z,26.30
2018-09-20T11:23:32.413Z,26.30
2018-09-20T11:26:02.038Z,26.40
2018-09-20T11:28:31.241Z,26.50
2018-09-20T11:31:00.178Z,26.60
2018-09-20T11:33:29.338Z,26.60
2018-09-20T11:35:58.377Z,26.70
2018-09-20T11:38:27.642Z,26.70
2018-09-20T11:40:56.949Z,26.80
2018-09-20T11:43:26.148Z,26.70
2018-09-20T11:45:55.503Z,26.60
2018-09-20T11:48:24.683Z,26.60
2018-09-20T11:50:55.601Z,26.70
2018-09-20T11:53:24.889Z,26.70
2018-09-20T11:55:54.464Z,26.80
2018-09-20T11:58:23.645Z,26.70
2018-09-20T12:00:52.588Z,26.80
2018-09-20T12:03:21.952Z,26.80
2018-09-20T12:05:50.960Z,26.90
2018-09-20T12:08:20.274Z,26.90
2018-09-20T12:10:49.274Z,26.90
2018-09-20T12:13:18.833Z,26.80
2018-09-20T12:15:48.149Z,26.80
2018-09-20T12:18:17.155Z,26.80
2018-09-20T12:20:46.472Z,26.80
2018-09-20T12:23:15.636Z,26.70
2018-09-20T12:25:44.638Z,26.70
2018-09-20T12:28:13.828Z,26.70
2018-09-20T12:30:42.805Z,26.70
2018-09-20T12:33:12.066Z,26.70
2018-09-20T12:35:41.260Z,26.80
2018-09-20T12:38:10.492Z,26.90
2018-09-20T12:40:41.071Z,27.00
2018-09-20T12:43:10.451Z,27.00
2018-09-20T12:45:40.771Z,27.00
2018-09-20T12:48:10.016Z,26.90
2018-09-20T12:50:39.234Z,26.80
2018-09-20T12:53:08.478Z,26.80
2018-09-20T12:55:37.480Z,26.90
2018-09-20T12:58:06.934Z,26.90
2018-09-20T13:00:36.314Z,27.00
2018-09-20T13:03:05.366Z,27.10
2018-09-20T13:05:34.682Z,27.00
2018-09-20T13:08:03.990Z,27.00
2018-09-20T13:10:33.868Z,27.00
2018-09-20T13:13:03.155Z,26.90
2018-09-20T13:15:32.289Z,26.90
2018-09-20T13:18:01.991Z,26.70
2018-09-20T13:20:31.229Z,26.80
2018-09-20T13:23:00.447Z,26.90
2018-09-20T13:25:29.625Z,27.00
2018-09-20T13:27:58.997Z,27.20
2018-09-20T13:30:28.320Z,27.30
2018-09-20T13:32:57.635Z,27.30
2018-09-20T13:35:26.582Z,27.40
2018-09-20T13:37:55.836Z,27.30
2018-09-20T13:40:24.831Z,27.30
2018-09-20T13:42:54.454Z,27.20
2018-09-20T13:45:23.808Z,27.20
2018-09-20T13:47:52.969Z,27.30
2018-09-20T13:50:22.411Z,27.40
2018-09-20T13:52:51.642Z,27.50
2018-09-20T13:55:20.815Z,27.40
2018-09-20T13:57:49.781Z,27.50
2018-09-20T14:00:18.835Z,27.40
2018-09-20T14:02:47.766Z,27.40
2018-09-20T14:05:16.970Z,27.40
2018-09-20T14:07:46.190Z,27.40
2018-09-20T14:10:15.222Z,27.40
2018-09-20T14:12:44.450Z,27.40
2018-09-20T14:15:13.718Z,27.40
2018-09-20T14:17:42.998Z,27.40
2018-09-20T14:20:12.230Z,27.40
2018-09-20T14:22:41.478Z,27.40
2018-09-20T14:25:10.670Z,27.20
2018-09-20T14:27:40.905Z,27.30
2018-09-20T14:30:10.126Z,27.20
2018-09-20T14:32:39.096Z,27.30
2018-09-20T14:35:08.720Z,27.20
2018-09-20T14:37:38.249Z,27.20
2018-09-20T14:40:07.199Z,27.20
2018-09-20T14:42:36.414Z,27.10
2018-09-20T14:45:06.390Z,27.10
2018-09-20T14:47:35.618Z,27.00
2018-09-20T14:50:05.358Z,27.10
2018-09-20T14:52:34.566Z,27.10
2018-09-20T14:55:04.184Z,27.10
2018-09-20T14:57:33.546Z,27.10
2018-09-20T15:00:02.588Z,27.20
2018-09-20T15:02:31.584Z,27.20
2018-09-20T15:05:00.648Z,27.30
2018-09-20T15:07:29.857Z,27.20
2018-09-20T15:09:58.801Z,27.10
2018-09-20T15:12:28.033Z,27.00
2018-09-20T15:14:57.237Z,27.00
2018-09-20T15:17:26.438Z,26.90
2018-09-20T15:19:56.993Z,27.00
2018-09-20T15:22:26.275Z,26.90
2018-09-20T15:24:55.464Z,27.00
2018-09-20T15:27:24.662Z,27.00
2018-09-20T15:29:53.840Z,27.00
2018-09-20T15:32:22.754Z,26.90
2018-09-20T15:34:51.946Z,26.80
2018-09-20T15:37:20.855Z,26.80
2018-09-20T15:39:49.979Z,26.70
2018-09-20T15:42:18.993Z,26.70
2018-09-20T15:44:48.192Z,26.50
2018-09-20T15:47:17.160Z,26.50
2018-09-20T15:49:46.411Z,26.50
2018-09-20T15:52:15.640Z,26.50
2018-09-20T15:54:46.177Z,26.50
2018-09-20T15:57:15.181Z,26.40
2018-09-20T15:59:44.137Z,26.30
2018-09-20T16:02:14.778Z,26.30
2018-09-20T16:04:43.981Z,26.30
2018-09-20T16:07:13.329Z,26.20
2018-09-20T16:09:42.592Z,26.10
2018-09-20T16:12:11.931Z,26.10
2018-09-20T16:14:41.300Z,26.10
2018-09-20T16:17:10.448Z,26.10
2018-09-20T16:19:39.753Z,26.00
2018-09-20T16:22:09.664Z,26.00
2018-09-20T16:24:39.101Z,25.90
2018-09-20T16:27:08.301Z,25.90
2018-09-20T16:29:54.826Z,25.80
2018-09-20T16:33:50.908Z,25.60
2018-09-20T16:36:32.365Z,25.50
2018-09-20T16:39:09.869Z,25.50
2018-09-20T16:41:43.388Z,25.30
2018-09-20T16:44:12.348Z,25.30
2018-09-20T16:46:41.518Z,25.20
2018-09-20T16:49:12.053Z,25.20
2018-09-20T16:51:41.221Z,25.20
2018-09-20T16:54:10.405Z,25.10
2018-09-20T16:56:39.740Z,25.00
2018-09-20T16:59:08.707Z,25.00
2018-09-20T17:01:39.271Z,24.80
2018-09-20T17:04:08.778Z,24.80
2018-09-20T17:06:37.712Z,24.70
2018-09-20T17:09:08.788Z,24.60
2018-09-20T17:11:37.798Z,24.60
2018-09-20T17:14:07.577Z,24.40
2018-09-20T17:16:37.071Z,24.40
2018-09-20T17:19:06.457Z,24.30
2018-09-20T17:21:36.826Z,24.20
2018-09-20T17:24:06.085Z,24.10
2018-09-20T17:26:35.348Z,24.10
2018-09-20T17:29:07.122Z,24.00
2018-09-20T17:31:36.474Z,23.90
2018-09-20T17:34:07.220Z,23.90
2018-09-20T17:36:36.837Z,23.70
2018-09-20T17:39:10.724Z,23.70
2018-09-20T17:41:41.440Z,23.60
2018-09-20T17:44:11.029Z,23.60
2018-09-20T17:46:40.246Z,23.50
2018-09-20T17:49:09.391Z,23.40
2018-09-20T17:51:39.124Z,23.30
2018-09-20T17:54:08.850Z,23.30
2018-09-20T17:56:38.505Z,23.20
2018-09-20T17:59:07.659Z,23.10
2018-09-20T18:01:36.644Z,23.00
2018-09-20T18:04:06.102Z,23.00
2018-09-20T18:06:35.061Z,22.90
2018-09-20T18:09:06.725Z,22.80
2018-09-20T18:11:35.938Z,22.80
2018-09-20T18:14:04.876Z,22.80
2018-09-20T18:16:34.084Z,22.70
2018-09-20T18:19:03.257Z,22.60
2018-09-20T18:21:32.395Z,22.60
2018-09-20T18:24:01.593Z,22.50
2018-09-20T18:26:30.803Z,22.50
2018-09-20T18:28:59.984Z,22.50
2018-09-20T18:31:29.723Z,22.50
2018-09-20T18:33:58.745Z,22.50
2018-09-20T18:36:28.000Z,22.40
2018-09-20T18:38:56.941Z,22.40
2018-09-20T18:41:26.086Z,22.30
2018-09-20T18:43:56.607Z,22.30
2018-09-20T18:46:25.882Z,22.20
2018-09-20T18:48:54.992Z,22.20
2018-09-20T18:51:24.318Z,22.10
2018-09-20T18:53:53.513Z,22.00
2018-09-20T18:56:22.813Z,22.00
2018-09-20T18:58:51.996Z,21.90
2018-09-20T19:01:21.220Z,21.90
2018-09-20T19:03:50.124Z,21.90
2018-09-20T19:06:19.325Z,21.80
2018-09-20T19:08:48.559Z,21.70
2018-09-20T19:11:17.717Z,21.70
2018-09-20T19:13:47.854Z,21.70
2018-09-20T19:16:17.182Z,21.60
2018-09-20T19:18:47.642Z,21.50
2018-09-20T19:21:16.833Z,21.50
2018-09-20T19:23:45.843Z,21.40
2018-09-20T19:26:14.826Z,21.40
2018-09-20T19:28:43.782Z,21.30
2018-09-20T19:31:12.724Z,21.30
2018-09-20T19:33:42.035Z,21.20
2018-09-20T19:36:11.041Z,21.20
2018-09-20T19:38:40.061Z,21.20
2018-09-20T19:41:08.979Z,21.20
2018-09-20T19:43:38.199Z,21.10
2018-09-20T19:46:07.557Z,21.10
2018-09-20T19:48:36.789Z,21.00
2018-09-20T19:51:06.073Z,21.00
2018-09-20T19:53:35.316Z,20.90
2018-09-20T19:56:05.322Z,21.00
2018-09-20T19:58:34.716Z,20.90
2018-09-20T20:01:04.066Z,20.90
2018-09-20T20:03:33.326Z,20.90
2018-09-20T20:06:02.692Z,20.90
2018-09-20T20:08:31.961Z,20.80
2018-09-20T20:11:01.758Z,20.80
2018-09-20T20:13:30.992Z,20.70
2018-09-20T20:16:00.143Z,20.70
2018-09-20T20:18:29.357Z,20.60
2018-09-20T20:21:00.022Z,20.70
2018-09-20T20:23:29.065Z,20.60
2018-09-20T20:25:58.016Z,20.60
2018-09-20T20:28:26.986Z,20.60
2018-09-20T20:30:56.181Z,20.50
2018-09-20T20:33:25.569Z,20.50
2018-09-20T20:35:56.637Z,20.50
2018-09-20T20:38:26.005Z,20.40
2018-09-20T20:40:55.004Z,20.50
2018-09-20T20:43:24.329Z,20.40
2018-09-20T20:45:53.620Z,20.40
2018-09-20T20:48:22.833Z,20.40
2018-09-20T20:50:51.752Z,20.50
2018-09-20T20:53:20.658Z,20.40
2018-09-20T20:55:49.562Z,20.50
2018-09-20T20:58:19.998Z,20.40
2018-09-20T21:00:49.178Z,20.40
2018-09-20T21:03:20.023Z,20.30
2018-09-20T21:05:49.012Z,20.40
2018-09-20T21:08:18.273Z,20.20
2018-09-20T21:10:47.442Z,20.20
2018-09-20T21:13:16.627Z,20.20
2018-09-20T21:15:45.573Z,20.20
2018-09-20T21:18:15.122Z,20.20
2018-09-20T21:20:44.414Z,20.10
2018-09-20T21:23:13.458Z,20.10
2018-09-20T21:25:42.490Z,20.10
2018-09-20T21:28:11.684Z,20.10
2018-09-20T21:30:41.500Z,20.10
2018-09-20T21:33:10.497Z,20.10
2018-09-20T21:35:39.668Z,20.10
2018-09-20T21:38:08.623Z,20.20
2018-09-20T21:40:37.809Z,20.10
2018-09-20T21:43:06.723Z,20.20
2018-09-20T21:45:35.934Z,20.20
2018-09-20T21:48:05.174Z,20.10
2018-09-20T21:50:35.874Z,20.10
2018-09-20T21:53:05.131Z,20.10
2018-09-20T21:55:34.467Z,20.10
2018-09-20T21:58:03.763Z,20.10
2018-09-20T22:00:32.764Z,20.20
2018-09-20T22:03:01.923Z,20.10
2018-09-20T22:05:32.060Z,20.10
2018-09-20T22:08:01.501Z,20.10
2018-09-20T22:10:30.858Z,20.10
2018-09-20T22:12:59.880Z,20.10
2018-09-20T22:15:29.980Z,20.10
2018-09-20T22:17:59.843Z,20.10
2018-09-20T22:20:30.172Z,20.10
2018-09-20T22:22:59.474Z,20.10
2018-09-20T22:25:28.653Z,20.10
2018-09-20T22:27:57.592Z,20.10
2018-09-20T22:30:26.529Z,20.10
2018-09-20T22:32:55.665Z,20.00
2018-09-20T22:35:24.593Z,20.10
2018-09-20T22:37:53.818Z,20.00
2018-09-20T22:40:23.039Z,20.00
2018-09-20T22:42:52.268Z,20.00
2018-09-20T22:45:21.218Z,20.10
2018-09-20T22:47:52.362Z,20.00
2018-09-20T22:50:21.682Z,20.00
2018-09-20T22:52:51.062Z,20.00
2018-09-20T22:55:20.296Z,20.00
2018-09-20T22:57:51.255Z,20.00
2018-09-20T23:00:23.970Z,20.00
2018-09-20T23:02:54.597Z,20.00
2018-09-20T23:05:25.813Z,20.00
2018-09-20T23:07:54.833Z,20.00
2018-09-20T23:10:24.433Z,20.00
2018-09-20T23:12:53.528Z,20.00
2018-09-20T23:15:22.865Z,19.90
2018-09-20T23:17:52.133Z,19.80
2018-09-20T23:20:21.082Z,19.90
2018-09-20T23:22:50.256Z,19.80
2018-09-20T23:25:19.495Z,19.80
2018-09-20T23:27:48.670Z,19.80
2018-09-20T23:30:18.267Z,19.70
2018-09-20T23:32:47.686Z,19.70
2018-09-20T23:35:16.656Z,19.80
2018-09-20T23:37:45.550Z,19.70
2018-09-20T23:40:14.500Z,19.70
2018-09-20T23:42:43.398Z,19.70
2018-09-20T23:45:12.619Z,19.60
2018-09-20T23:47:41.663Z,19.70
2018-09-20T23:50:10.965Z,19.60
2018-09-20T23:52:40.164Z,19.60
2018-09-20T23:55:09.129Z,19.70
2018-09-20T23:57:38.355Z,19.60
